createdAt,value
2022-09-06T00:00:26.544Z,99107.47
2022-09-06T00:02:57.593Z,99103.09
2022-09-06T00:05:24.567Z,99099.72
2022-09-06T00:07:51.652Z,99110.56
2022-09-06T00:10:18.448Z,99110.78
2022-09-06T00:12:45.853Z,99105.56
2022-09-06T00:15:12.904Z,99104.09
2022-09-06T00:17:39.753Z,99101.41
2022-09-06T00:20:09.299Z,99091.53
2022-09-06T00:22:37.620Z,99094.09
2022-09-06T00:25:06.477Z,99099.47
2022-09-06T00:27:34.941Z,99098.59
2022-09-06T00:30:02.053Z,99091.78
2022-09-06T00:32:28.820Z,99080.22
2022-09-06T00:34:55.657Z,99087.53
2022-09-06T00:37:22.644Z,99080.44
2022-09-06T00:39:49.516Z,99084.22
2022-09-06T00:42:16.333Z,99097.78
2022-09-06T00:44:43.413Z,99086.06
2022-09-06T00:47:10.536Z,99090.56
2022-09-06T00:49:45.040Z,99096.28
2022-09-06T00:52:16.825Z,99089.22
2022-09-06T00:54:44.441Z,99091.28
2022-09-06T00:57:13.314Z,99091.28
2022-09-06T00:59:42.655Z,99084.25
2022-09-06T01:02:09.956Z,99080.84
2022-09-06T01:04:41.847Z,99074.72
2022-09-06T01:07:40.115Z,99079.13
2022-09-06T01:10:09.927Z,99076.44
2022-09-06T01:13:17.628Z,99072.41
2022-09-06T01:16:39.916Z,99066.41
2022-09-06T01:19:50.440Z,99067.41
2022-09-06T01:22:48.012Z,99070.22
2022-09-06T01:25:55.616Z,99069.09
2022-09-06T01:28:30.176Z,99075.47
2022-09-06T01:31:38.083Z,99078.13
2022-09-06T01:34:07.695Z,99080.09
2022-09-06T01:37:11.133Z,99072.41
2022-09-06T01:39:41.691Z,99070.81
2022-09-06T01:42:29.810Z,99067.41
2022-09-06T01:45:02.782Z,99068.63
2022-09-06T01:47:35.668Z,99075.78
2022-09-06T01:50:41.625Z,99082.47
2022-09-06T01:53:20.533Z,99079.28
2022-09-06T01:56:07.655Z,99084.31
2022-09-06T01:59:12.917Z,99088.47
2022-09-06T02:01:48.627Z,99091.03
2022-09-06T02:04:35.965Z,99082.56
2022-09-06T02:07:24.825Z,99090.97
2022-09-06T02:10:03.011Z,99095.47
2022-09-06T02:12:34.072Z,99099.88
2022-09-06T02:15:15.958Z,99094.28
2022-09-06T02:18:00.419Z,99097.69
2022-09-06T02:20:34.580Z,99098.44
2022-09-06T02:23:08.377Z,99095.00
2022-09-06T02:25:42.490Z,99099.16
2022-09-06T02:28:10.892Z,99092.31
2022-09-06T02:30:48.534Z,99083.66
2022-09-06T02:33:30.692Z,99066.84
2022-09-06T02:36:06.440Z,99085.84
2022-09-06T02:38:37.773Z,99081.44
2022-09-06T02:41:06.356Z,99081.66
2022-09-06T02:43:33.498Z,99087.19
2022-09-06T02:46:00.386Z,99079.25
2022-09-06T02:48:27.476Z,99080.94
2022-09-06T02:50:57.520Z,99075.81
2022-09-06T02:53:24.335Z,99085.19
2022-09-06T02:55:51.523Z,99087.38
2022-09-06T02:58:18.369Z,99083.13
2022-09-06T03:00:45.195Z,99074.59
2022-09-06T03:03:12.413Z,99087.19
2022-09-06T03:05:39.398Z,99081.00
2022-09-06T03:08:06.318Z,99072.34
2022-09-06T03:10:33.546Z,99075.88
2022-09-06T03:13:00.444Z,99068.19
2022-09-06T03:15:27.271Z,99073.53
2022-09-06T03:17:59.463Z,99071.22
2022-09-06T03:20:26.757Z,99070.72
2022-09-06T03:22:53.569Z,99069.13
2022-09-06T03:25:21.778Z,99071.06
2022-09-06T03:27:48.601Z,99067.78
2022-09-06T03:30:15.511Z,99066.06
2022-09-06T03:32:42.674Z,99067.03
2022-09-06T03:35:10.214Z,99065.09
2022-09-06T03:37:37.478Z,99074.56
2022-09-06T03:40:06.301Z,99073.75
2022-09-06T03:42:33.231Z,99080.03
2022-09-06T03:45:00.123Z,99072.72
2022-09-06T03:47:27.138Z,99071.88
2022-09-06T03:49:54.029Z,99066.00
2022-09-06T03:52:20.805Z,99061.31
2022-09-06T03:54:47.825Z,99061.53
2022-09-06T03:57:14.691Z,99062.50
2022-09-06T03:59:41.558Z,99068.19
2022-09-06T04:02:08.682Z,99075.72
2022-09-06T04:04:35.458Z,99069.50
2022-09-06T04:07:02.208Z,99072.94
2022-09-06T04:09:29.281Z,99071.44
2022-09-06T04:11:56.090Z,99076.56
2022-09-06T04:14:23.065Z,99084.47
2022-09-06T04:16:50.800Z,99085.66
2022-09-06T04:19:17.617Z,99085.16
2022-09-06T04:21:44.490Z,99070.59
2022-09-06T04:24:11.527Z,99077.47
2022-09-06T04:26:38.633Z,99075.78
2022-09-06T04:29:05.651Z,99071.28
2022-09-06T04:31:32.807Z,99069.25
2022-09-06T04:33:59.665Z,99073.44
2022-09-06T04:36:26.612Z,99069.97
2022-09-06T04:38:54.733Z,99070.34
2022-09-06T04:41:21.959Z,99065.53
2022-09-06T04:43:49.443Z,99058.06
2022-09-06T04:46:26.954Z,99052.84
2022-09-06T04:48:55.996Z,99054.53
2022-09-06T04:51:25.165Z,99049.28
2022-09-06T04:53:52.646Z,99059.34
2022-09-06T04:56:23.004Z,99062.88
2022-09-06T04:58:52.302Z,99063.00
2022-09-06T05:01:20.551Z,99065.03
2022-09-06T05:03:47.736Z,99059.47
2022-09-06T05:06:24.812Z,99061.28
2022-09-06T05:08:52.458Z,99064.91
2022-09-06T05:11:19.897Z,99064.06
2022-09-06T05:13:47.647Z,99058.63
2022-09-06T05:16:14.897Z,99063.75
2022-09-06T05:18:42.068Z,99060.19
2022-09-06T05:21:08.928Z,99066.84
2022-09-06T05:23:36.649Z,99073.66
2022-09-06T05:26:05.080Z,99082.88
2022-09-06T05:28:32.188Z,99080.53
2022-09-06T05:31:10.992Z,99082.47
2022-09-06T05:33:38.459Z,99072.81
2022-09-06T05:36:06.575Z,99078.16
2022-09-06T05:38:33.909Z,99073.56
2022-09-06T05:41:01.031Z,99077.75
2022-09-06T05:43:27.837Z,99067.06
2022-09-06T05:45:54.776Z,99067.78
2022-09-06T05:48:21.913Z,99068.88
2022-09-06T05:51:00.086Z,99066.06
2022-09-06T05:53:27.031Z,99067.78
2022-09-06T05:55:53.821Z,99063.69
2022-09-06T05:58:20.586Z,99067.88
2022-09-06T06:00:48.049Z,99067.66
2022-09-06T06:03:14.938Z,99069.56
2022-09-06T06:05:47.655Z,99064.22
2022-09-06T06:08:14.874Z,99069.81
2022-09-06T06:10:41.722Z,99068.09
2022-09-06T06:13:08.606Z,99065.53
2022-09-06T06:15:36.172Z,99066.72
2022-09-06T06:18:03.016Z,99071.63
2022-09-06T06:20:30.137Z,99073.44
2022-09-06T06:22:57.360Z,99074.56
2022-09-06T06:25:26.245Z,99081.28
2022-09-06T06:27:53.199Z,99078.16
2022-09-06T06:30:20.652Z,99077.94
2022-09-06T06:32:47.444Z,99071.59
2022-09-06T06:35:14.477Z,99068.28
2022-09-06T06:37:42.417Z,99067.91
2022-09-06T06:40:09.962Z,99070.56
2022-09-06T06:42:36.869Z,99075.31
2022-09-06T06:45:04.353Z,99069.72
2022-09-06T06:47:31.404Z,99072.50
2022-09-06T06:49:58.281Z,99061.44
2022-09-06T06:52:25.687Z,99069.53
2022-09-06T06:54:52.567Z,99080.84
2022-09-06T06:57:19.394Z,99075.75
2022-09-06T06:59:46.482Z,99064.47
2022-09-06T07:02:15.864Z,99067.91
2022-09-06T07:04:43.304Z,99067.78
2022-09-06T07:12:44.749Z,99079.38
2022-09-06T07:15:11.661Z,99078.75
2022-09-06T07:17:38.645Z,99077.97
2022-09-06T07:20:14.293Z,99076.63
2022-09-06T07:22:42.763Z,99074.22
2022-09-06T07:25:14.389Z,99077.41
2022-09-06T07:27:47.534Z,99071.81
2022-09-06T07:30:15.723Z,99066.19
2022-09-06T07:32:42.708Z,99071.94
2022-09-06T07:35:09.779Z,99065.81
2022-09-06T07:37:36.878Z,99061.91
2022-09-06T07:40:04.834Z,99063.41
2022-09-06T07:42:36.174Z,99053.88
2022-09-06T07:45:05.439Z,99062.41
2022-09-06T07:53:14.994Z,99058.13
2022-09-06T07:55:43.142Z,99050.94
2022-09-06T07:58:09.943Z,99053.50
2022-09-06T08:00:38.468Z,99054.34
2022-09-06T08:03:05.606Z,99055.53
2022-09-06T08:11:07.677Z,99052.38
2022-09-06T08:13:36.433Z,99051.25
2022-09-06T08:16:10.355Z,99053.56
2022-09-06T08:18:38.370Z,99054.81
2022-09-06T08:21:14.233Z,99053.22
2022-09-06T08:23:47.649Z,99060.63
2022-09-06T08:26:17.118Z,99063.78
2022-09-06T08:28:44.718Z,99057.94
2022-09-06T08:31:17.247Z,99057.09
2022-09-06T08:33:44.627Z,99060.63
2022-09-06T08:36:11.934Z,99063.19
2022-09-06T08:38:38.748Z,99065.13
2022-09-06T08:41:14.339Z,99055.13
2022-09-06T08:47:06.553Z,99066.66
2022-09-06T08:50:06.588Z,99062.84
2022-09-06T08:53:16.619Z,99066.88
2022-09-06T08:55:50.277Z,99070.53
2022-09-06T08:58:26.661Z,99072.00
2022-09-06T09:01:08.162Z,99070.16
2022-09-06T09:03:42.582Z,99070.16
2022-09-06T09:06:10.579Z,99067.22
2022-09-06T09:09:06.422Z,99062.81
2022-09-06T09:11:36.162Z,99057.31
2022-09-06T09:14:29.222Z,99055.22
2022-09-06T09:17:12.241Z,99055.56
2022-09-06T09:19:42.159Z,99055.19
2022-09-06T09:22:10.689Z,99053.09
2022-09-06T09:24:37.543Z,99050.00
2022-09-06T09:27:11.257Z,99042.53
2022-09-06T09:32:49.537Z,99039.34
2022-09-06T09:35:35.177Z,99030.75
2022-09-06T09:38:20.941Z,99026.56
2022-09-06T09:40:58.684Z,99018.94
2022-09-06T09:43:32.246Z,99016.63
2022-09-06T09:46:24.838Z,99016.56
2022-09-06T09:49:14.629Z,99013.44
2022-09-06T09:51:46.712Z,99003.41
2022-09-06T09:54:31.702Z,99012.59
2022-09-06T09:56:59.361Z,99023.91
2022-09-06T09:59:38.143Z,99002.97
2022-09-06T10:02:39.398Z,98994.78
2022-09-06T10:05:13.127Z,98997.75
2022-09-06T10:07:58.714Z,99001.16
2022-09-06T10:10:30.666Z,98999.19
2022-09-06T10:13:21.444Z,98996.66
2022-09-06T10:15:52.152Z,98998.09
2022-09-06T10:18:43.823Z,98992.56
2022-09-06T10:21:19.800Z,98988.38
2022-09-06T10:24:30.177Z,98992.63
2022-09-06T10:27:04.338Z,98986.28
2022-09-06T10:29:56.180Z,98985.97
2022-09-06T10:32:33.583Z,98987.56
2022-09-06T10:35:30.946Z,98984.72
2022-09-06T10:38:38.649Z,98981.03
2022-09-06T10:41:25.754Z,98982.47
2022-09-06T10:44:54.714Z,98980.63
2022-09-06T10:47:38.334Z,98969.56
2022-09-06T10:50:07.072Z,98967.19
2022-09-06T10:52:43.727Z,98966.19
2022-09-06T10:55:16.633Z,98969.72
2022-09-06T11:00:48.597Z,98963.22
2022-09-06T11:06:28.718Z,98962.94
2022-09-06T11:09:21.074Z,98968.19
2022-09-06T11:11:56.692Z,98966.94
2022-09-06T11:14:28.897Z,98969.31
2022-09-06T11:17:18.915Z,98967.63
2022-09-06T11:20:07.954Z,98955.41
2022-09-06T11:23:20.747Z,98949.28
2022-09-06T11:26:27.777Z,98941.44
2022-09-06T11:29:02.978Z,98932.50
2022-09-06T11:34:27.476Z,98929.94
2022-09-06T11:37:08.593Z,98925.78
2022-09-06T11:43:01.129Z,98914.41
2022-09-06T11:45:53.050Z,98916.81
2022-09-06T11:48:48.696Z,98913.69
2022-09-06T11:51:36.789Z,98913.69
2022-09-06T11:54:45.020Z,98912.53
2022-09-06T11:57:22.932Z,98910.41
2022-09-06T12:00:01.028Z,98907.25
2022-09-06T12:02:37.815Z,98900.56
2022-09-06T12:05:07.418Z,98898.41
2022-09-06T12:07:37.729Z,98896.53
2022-09-06T12:10:29.527Z,98884.63
2022-09-06T12:12:57.940Z,98882.47
2022-09-06T12:15:43.376Z,98876.38
2022-09-06T12:18:48.931Z,98877.59
2022-09-06T12:21:47.743Z,98868.22
2022-09-06T12:24:36.520Z,98876.69
2022-09-06T12:27:18.622Z,98879.09
2022-09-06T12:30:01.005Z,98872.69
2022-09-06T12:32:44.012Z,98872.53
2022-09-06T12:38:25.962Z,98862.66
2022-09-06T12:40:58.429Z,98852.75
2022-09-06T12:43:27.072Z,98851.41
2022-09-06T12:45:54.236Z,98859.50
2022-09-06T12:48:41.179Z,98846.03
2022-09-06T12:51:19.532Z,98840.31
2022-09-06T12:53:54.959Z,98839.28
2022-09-06T12:56:26.792Z,98840.69
2022-09-06T12:59:09.658Z,98844.75
2022-09-06T13:01:37.935Z,98839.09
2022-09-06T13:04:18.664Z,98837.59
2022-09-06T13:06:48.221Z,98828.00
2022-09-06T13:09:20.891Z,98835.78
2022-09-06T13:11:52.481Z,98836.84
2022-09-06T13:14:28.240Z,98831.13
2022-09-06T13:16:57.231Z,98827.56
2022-09-06T13:19:38.049Z,98824.72
2022-09-06T13:22:11.228Z,98823.72
2022-09-06T13:24:49.072Z,98827.97
2022-09-06T13:27:31.276Z,98821.22
2022-09-06T13:30:10.460Z,98829.03
2022-09-06T13:32:47.786Z,98835.31
2022-09-06T13:35:25.799Z,98824.34
2022-09-06T13:37:52.862Z,98824.06
2022-09-06T13:41:09.823Z,98820.31
2022-09-06T13:43:45.157Z,98827.28
2022-09-06T13:46:12.263Z,98829.28
2022-09-06T13:48:39.862Z,98835.00
2022-09-06T13:51:09.884Z,98827.38
2022-09-06T13:53:37.111Z,98827.84
2022-09-06T13:56:05.140Z,98829.34
2022-09-06T13:58:32.013Z,98829.84
2022-09-06T14:00:59.251Z,98823.47
2022-09-06T14:03:32.895Z,98824.97
2022-09-06T14:06:00.906Z,98822.59
2022-09-06T14:08:43.656Z,98823.63
2022-09-06T14:11:19.518Z,98824.47
2022-09-06T14:13:47.901Z,98822.75
2022-09-06T14:16:14.845Z,98816.50
2022-09-06T14:18:41.880Z,98818.91
2022-09-06T14:21:08.982Z,98825.44
2022-09-06T14:23:35.881Z,98825.16
2022-09-06T14:26:04.871Z,98821.59
2022-09-06T14:28:34.047Z,98819.75
2022-09-06T14:31:32.685Z,98815.53
2022-09-06T14:34:02.521Z,98817.34
2022-09-06T14:36:31.987Z,98820.91
2022-09-06T14:39:01.073Z,98819.22
2022-09-06T14:41:29.340Z,98810.44
2022-09-06T14:43:58.480Z,98811.94
2022-09-06T14:46:28.308Z,98807.41
2022-09-06T14:49:02.777Z,98817.19
2022-09-06T14:51:31.163Z,98811.13
2022-09-06T14:54:12.967Z,98815.00
2022-09-06T14:56:41.902Z,98807.06
2022-09-06T14:59:09.285Z,98803.47
2022-09-06T15:01:38.770Z,98799.25
2022-09-06T15:04:09.909Z,98791.47
2022-09-06T15:06:40.728Z,98798.56
2022-09-06T15:09:11.190Z,98797.88
2022-09-06T15:11:51.759Z,98799.88
2022-09-06T15:14:23.315Z,98800.03
2022-09-06T15:16:55.944Z,98806.47
2022-09-06T15:19:26.822Z,98809.47
2022-09-06T15:21:57.317Z,98811.47
2022-09-06T15:24:25.292Z,98806.25
2022-09-06T15:26:52.530Z,98807.22
2022-09-06T15:29:20.412Z,98809.09
2022-09-06T15:31:52.707Z,98798.75
2022-09-06T15:34:26.007Z,98805.06
2022-09-06T15:36:54.516Z,98802.63
2022-09-06T15:39:21.488Z,98817.50
2022-09-06T15:41:51.625Z,98819.50
2022-09-06T15:44:21.646Z,98820.06
2022-09-06T15:46:57.694Z,98811.53
2022-09-06T15:49:34.238Z,98814.16
2022-09-06T15:52:03.508Z,98810.09
2022-09-06T15:54:48.991Z,98802.22
2022-09-06T15:57:17.407Z,98796.56
2022-09-06T15:59:45.056Z,98788.22
2022-09-06T16:02:12.974Z,98781.97
2022-09-06T16:04:40.081Z,98775.88
2022-09-06T16:07:07.495Z,98779.41
2022-09-06T16:09:34.701Z,98778.44
2022-09-06T16:12:01.652Z,98778.44
2022-09-06T16:14:29.002Z,98779.28
2022-09-06T16:16:57.401Z,98771.91
2022-09-06T16:19:26.075Z,98767.09
2022-09-06T16:21:53.661Z,98765.09
2022-09-06T16:24:21.467Z,98765.91
2022-09-06T16:26:49.695Z,98758.34
2022-09-06T16:29:19.217Z,98757.59
2022-09-06T16:31:47.132Z,98755.47
2022-09-06T16:34:15.173Z,98756.00
2022-09-06T16:36:42.570Z,98749.25
2022-09-06T16:39:11.100Z,98752.94
2022-09-06T16:41:45.815Z,98736.38
2022-09-06T16:44:18.113Z,98738.06
2022-09-06T16:46:50.334Z,98732.97
2022-09-06T16:49:19.319Z,98728.59
2022-09-06T16:51:48.614Z,98736.81
2022-09-06T16:54:19.032Z,98743.38
2022-09-06T16:56:46.283Z,98733.19
2022-09-06T16:59:17.556Z,98729.25
2022-09-06T17:01:46.185Z,98723.31
2022-09-06T17:04:14.596Z,98722.63
2022-09-06T17:06:45.610Z,98716.84
2022-09-06T17:09:20.240Z,98726.50
2022-09-06T17:11:49.930Z,98726.84
2022-09-06T17:14:19.027Z,98728.78
2022-09-06T17:17:05.064Z,98722.00
2022-09-06T17:19:41.618Z,98727.53
2022-09-06T17:22:10.837Z,98734.91
2022-09-06T17:24:39.231Z,98741.88
2022-09-06T17:27:07.382Z,98731.56
2022-09-06T17:29:34.870Z,98737.38
2022-09-06T17:32:03.951Z,98734.84
2022-09-06T17:34:31.276Z,98733.13
2022-09-06T17:36:58.255Z,98735.69
2022-09-06T17:39:25.733Z,98733.13
2022-09-06T17:41:54.393Z,98738.84
2022-09-06T17:44:26.179Z,98730.34
2022-09-06T17:47:11.893Z,98730.63
2022-09-06T17:49:41.197Z,98731.63
2022-09-06T17:52:08.399Z,98734.44
2022-09-06T17:54:36.271Z,98727.53
2022-09-06T17:57:03.891Z,98727.81
2022-09-06T17:59:35.440Z,98735.34
2022-09-06T18:02:04.868Z,98735.78
2022-09-06T18:04:32.649Z,98735.22
2022-09-06T18:07:01.773Z,98748.13
2022-09-06T18:09:28.929Z,98754.75
2022-09-06T18:11:57.193Z,98750.53
2022-09-06T18:14:25.564Z,98747.16
2022-09-06T18:16:53.017Z,98757.91
2022-09-06T18:19:22.281Z,98748.25
2022-09-06T18:21:54.393Z,98753.66
2022-09-06T18:24:25.272Z,98759.88
2022-09-06T18:26:52.609Z,98754.66
2022-09-06T18:29:20.921Z,98756.34
2022-09-06T18:31:48.616Z,98757.19
2022-09-06T18:34:19.976Z,98765.97
2022-09-06T18:36:48.719Z,98756.06
2022-09-06T18:39:17.686Z,98763.28
2022-09-06T18:42:00.629Z,98767.50
2022-09-06T18:44:33.781Z,98770.47
2022-09-06T18:47:06.293Z,98769.78
2022-09-06T18:49:41.802Z,98765.53
2022-09-06T18:52:13.783Z,98767.66
2022-09-06T18:54:43.786Z,98770.50
2022-09-06T18:57:13.225Z,98767.94
2022-09-06T18:59:49.434Z,98770.75
2022-09-06T19:02:16.811Z,98769.19
2022-09-06T19:04:54.133Z,98765.09
2022-09-06T19:07:29.703Z,98766.38
2022-09-06T19:09:58.588Z,98763.97
2022-09-06T19:12:27.762Z,98763.25
2022-09-06T19:14:55.114Z,98767.94
2022-09-06T19:17:23.251Z,98761.84
2022-09-06T19:19:50.434Z,98755.78
2022-09-06T19:22:17.935Z,98758.75
2022-09-06T19:24:53.424Z,98757.16
2022-09-06T19:27:20.595Z,98751.22
2022-09-06T19:29:48.179Z,98756.88
2022-09-06T19:32:19.338Z,98757.19
2022-09-06T19:34:47.723Z,98751.06
2022-09-06T19:37:17.383Z,98751.94
2022-09-06T19:39:45.576Z,98749.41
2022-09-06T19:42:13.008Z,98756.88
2022-09-06T19:44:40.264Z,98747.84
2022-09-06T19:47:08.142Z,98746.56
2022-09-06T19:49:35.459Z,98744.59
2022-09-06T19:52:09.649Z,98735.25
2022-09-06T19:54:37.971Z,98741.63
2022-09-06T19:57:06.263Z,98738.38
2022-09-06T19:59:36.395Z,98737.66
2022-09-06T20:02:04.995Z,98741.31
2022-09-06T20:04:32.511Z,98747.84
2022-09-06T20:06:59.418Z,98742.75
2022-09-06T20:09:26.767Z,98732.41
2022-09-06T20:11:53.714Z,98741.75
2022-09-06T20:14:20.848Z,98744.81
2022-09-06T20:16:48.005Z,98746.06
2022-09-06T20:19:16.439Z,98735.75
2022-09-06T20:21:43.401Z,98741.97
2022-09-06T20:24:12.536Z,98749.19
2022-09-06T20:26:40.358Z,98747.59
2022-09-06T20:29:08.197Z,98740.53
2022-09-06T20:31:37.312Z,98739.41
2022-09-06T20:34:06.604Z,98729.38
2022-09-06T20:36:34.134Z,98724.88
2022-09-06T20:39:02.229Z,98713.38
2022-09-06T20:41:29.469Z,98716.06
2022-09-06T20:43:59.044Z,98715.09
2022-09-06T20:46:32.821Z,98717.78
2022-09-06T20:49:04.478Z,98718.75
2022-09-06T20:51:34.763Z,98716.94
2022-09-06T20:54:04.325Z,98717.09
2022-09-06T20:56:35.015Z,98718.91
2022-09-06T20:59:05.763Z,98709.03
2022-09-06T21:01:37.217Z,98711.97
2022-09-06T21:04:07.674Z,98716.66
2022-09-06T21:06:36.875Z,98714.50
2022-09-06T21:09:09.640Z,98719.75
2022-09-06T21:11:37.512Z,98717.19
2022-09-06T21:14:05.619Z,98715.66
2022-09-06T21:16:33.267Z,98712.22
2022-09-06T21:19:05.274Z,98711.66
2022-09-06T21:21:34.835Z,98714.47
2022-09-06T21:24:05.137Z,98700.75
2022-09-06T21:26:32.308Z,98703.88
2022-09-06T21:28:59.247Z,98702.56
2022-09-06T21:31:33.720Z,98701.16
2022-09-06T21:34:07.460Z,98701.41
2022-09-06T21:36:37.685Z,98700.72
2022-09-06T21:39:10.151Z,98706.06
2022-09-06T21:41:39.979Z,98701.81
2022-09-06T21:44:08.552Z,98705.63
2022-09-06T21:46:39.182Z,98701.63
2022-09-06T21:49:10.997Z,98698.38
2022-09-06T21:51:38.742Z,98702.06
2022-09-06T21:54:07.073Z,98694.72
2022-09-06T21:56:38.141Z,98695.69
2022-09-06T21:59:06.221Z,98692.44
2022-09-06T22:01:36.387Z,98702.59
2022-09-06T22:04:04.899Z,98694.78
2022-09-06T22:06:34.454Z,98702.13
2022-09-06T22:09:07.929Z,98702.38
2022-09-06T22:11:35.244Z,98689.09
2022-09-06T22:14:06.488Z,98691.91
2022-09-06T22:16:36.164Z,98699.13
2022-09-06T22:19:09.191Z,98695.03
2022-09-06T22:21:38.644Z,98685.53
2022-09-06T22:24:09.842Z,98680.84
2022-09-06T22:26:38.723Z,98682.03
2022-09-06T22:29:09.106Z,98676.81
2022-09-06T22:31:37.046Z,98675.38
2022-09-06T22:34:04.903Z,98684.38
2022-09-06T22:36:32.870Z,98682.00
2022-09-06T22:38:59.932Z,98688.31
2022-09-06T22:41:31.745Z,98686.59
2022-09-06T22:44:03.487Z,98684.78
2022-09-06T22:46:31.571Z,98682.38
2022-09-06T22:48:59.184Z,98687.88
2022-09-06T22:51:26.214Z,98684.97
2022-09-06T22:53:53.314Z,98686.25
2022-09-06T22:56:20.366Z,98683.69
2022-09-06T22:58:47.418Z,98688.16
2022-09-06T23:01:16.487Z,98680.00
2022-09-06T23:03:43.933Z,98682.56
2022-09-06T23:06:11.390Z,98681.34
2022-09-06T23:08:40.701Z,98680.34
2022-09-06T23:11:12.363Z,98679.38
2022-09-06T23:13:44.091Z,98676.69
2022-09-06T23:16:18.489Z,98684.00
2022-09-06T23:18:46.524Z,98691.47
2022-09-06T23:21:18.119Z,98692.44
2022-09-06T23:23:47.185Z,98691.97
2022-09-06T23:26:22.361Z,98691.28
2022-09-06T23:28:56.786Z,98693.06
2022-09-06T23:31:27.963Z,98686.28
2022-09-06T23:34:00.971Z,98685.09
2022-09-06T23:36:28.742Z,98685.97
2022-09-06T23:38:56.917Z,98690.72
2022-09-06T23:41:24.868Z,98685.13
2022-09-06T23:43:51.909Z,98686.09
2022-09-06T23:46:18.929Z,98688.06
2022-09-06T23:48:46.095Z,98687.22
2022-09-06T23:51:13.932Z,98692.09
2022-09-06T23:53:40.993Z,98691.75
2022-09-06T23:56:08.239Z,98684.09
2022-09-06T23:58:36.687Z,98679.63
